sensor_id;sensor_type;location;lat;lon;timestamp;P1;durP1;ratioP1;P2;durP2;ratioP2
68593;SDS011;55563;52.416;13.548;2022-12-07T00:01:32;7.10;;;3.35;;
68593;SDS011;55563;52.416;13.548;2022-12-07T00:03:34;5.13;;;2.97;;
68593;SDS011;55563;52.416;13.548;2022-12-07T00:05:36;6.45;;;3.70;;
68593;SDS011;55563;52.416;13.548;2022-12-07T00:07:36;6.38;;;3.42;;
68593;SDS011;55563;52.416;13.548;2022-12-07T00:09:37;6.05;;;2.78;;
68593;SDS011;55563;52.416;13.548;2022-12-07T00:11:39;7.38;;;3.72;;
68593;SDS011;55563;52.416;13.548;2022-12-07T00:13:40;6.53;;;3.47;;
68593;SDS011;55563;52.416;13.548;2022-12-07T00:17:42;6.75;;;3.70;;
68593;SDS011;55563;52.416;13.548;2022-12-07T00:19:42;7.57;;;3.55;;
68593;SDS011;55563;52.416;13.548;2022-12-07T00:21:43;7.28;;;4.38;;
68593;SDS011;55563;52.416;13.548;2022-12-07T00:23:44;4.82;;;2.65;;
68593;SDS011;55563;52.416;13.548;2022-12-07T00:25:45;6.80;;;3.30;;
68593;SDS011;55563;52.416;13.548;2022-12-07T00:27:48;4.55;;;2.53;;
68593;SDS011;55563;52.416;13.548;2022-12-07T00:29:48;6.88;;;3.53;;
68593;SDS011;55563;52.416;13.548;2022-12-07T00:31:49;5.60;;;3.05;;
68593;SDS011;55563;52.416;13.548;2022-12-07T00:33:50;6.45;;;4.10;;
68593;SDS011;55563;52.416;13.548;2022-12-07T00:35:58;5.75;;;3.03;;
68593;SDS011;55563;52.416;13.548;2022-12-07T00:37:59;5.38;;;2.72;;
68593;SDS011;55563;52.416;13.548;2022-12-07T00:40:00;5.13;;;3.03;;
68593;SDS011;55563;52.416;13.548;2022-12-07T00:42:01;5.65;;;3.15;;
68593;SDS011;55563;52.416;13.548;2022-12-07T00:44:02;5.00;;;2.78;;
68593;SDS011;55563;52.416;13.548;2022-12-07T00:46:02;5.68;;;2.90;;
68593;SDS011;55563;52.416;13.548;2022-12-07T00:48:03;6.05;;;3.33;;
68593;SDS011;55563;52.416;13.548;2022-12-07T00:50:04;5.72;;;3.30;;
68593;SDS011;55563;52.416;13.548;2022-12-07T00:52:05;6.07;;;3.95;;
68593;SDS011;55563;52.416;13.548;2022-12-07T00:54:05;7.13;;;3.53;;
68593;SDS011;55563;52.416;13.548;2022-12-07T00:56:07;6.22;;;3.97;;
68593;SDS011;55563;52.416;13.548;2022-12-07T00:58:09;6.25;;;3.90;;
68593;SDS011;55563;52.416;13.548;2022-12-07T01:00:10;6.00;;;3.38;;
68593;SDS011;55563;52.416;13.548;2022-12-07T01:02:11;6.10;;;3.08;;
68593;SDS011;55563;52.416;13.548;2022-12-07T01:04:11;5.18;;;3.33;;
68593;SDS011;55563;52.416;13.548;2022-12-07T01:06:14;5.53;;;3.38;;
68593;SDS011;55563;52.416;13.548;2022-12-07T01:08:16;5.50;;;3.00;;
68593;SDS011;55563;52.416;13.548;2022-12-07T01:10:17;6.05;;;3.63;;
68593;SDS011;55563;52.416;13.548;2022-12-07T01:12:18;6.70;;;4.00;;
68593;SDS011;55563;52.416;13.548;2022-12-07T01:14:18;4.95;;;3.03;;
68593;SDS011;55563;52.416;13.548;2022-12-07T01:16:19;6.40;;;3.22;;
68593;SDS011;55563;52.416;13.548;2022-12-07T01:18:22;5.47;;;3.38;;
68593;SDS011;55563;52.416;13.548;2022-12-07T01:20:22;5.95;;;3.10;;
68593;SDS011;55563;52.416;13.548;2022-12-07T01:22:23;7.00;;;3.60;;
68593;SDS011;55563;52.416;13.548;2022-12-07T01:24:23;4.75;;;3.03;;
68593;SDS011;55563;52.416;13.548;2022-12-07T01:26:24;5.07;;;3.28;;
68593;SDS011;55563;52.416;13.548;2022-12-07T01:28:26;6.68;;;3.53;;
68593;SDS011;55563;52.416;13.548;2022-12-07T01:30:27;5.72;;;3.10;;
68593;SDS011;55563;52.416;13.548;2022-12-07T01:32:28;5.15;;;3.03;;
68593;SDS011;55563;52.416;13.548;2022-12-07T01:34:29;4.90;;;2.88;;
68593;SDS011;55563;52.416;13.548;2022-12-07T01:36:31;5.13;;;2.92;;
68593;SDS011;55563;52.416;13.548;2022-12-07T01:38:33;5.15;;;3.55;;
68593;SDS011;55563;52.416;13.548;2022-12-07T01:40:34;5.85;;;3.00;;
68593;SDS011;55563;52.416;13.548;2022-12-07T01:42:35;5.30;;;2.90;;
68593;SDS011;55563;52.416;13.548;2022-12-07T01:47:16;5.43;;;2.75;;
68593;SDS011;55563;52.416;13.548;2022-12-07T01:49:20;5.63;;;2.97;;
68593;SDS011;55563;52.416;13.548;2022-12-07T01:51:28;7.05;;;2.97;;
68593;SDS011;55563;52.416;13.548;2022-12-07T01:53:29;4.50;;;2.50;;
68593;SDS011;55563;52.416;13.548;2022-12-07T01:55:33;6.03;;;3.58;;
68593;SDS011;55563;52.416;13.548;2022-12-07T01:57:39;4.53;;;3.05;;
68593;SDS011;55563;52.416;13.548;2022-12-07T01:59:42;4.57;;;2.03;;
68593;SDS011;55563;52.416;13.548;2022-12-07T02:01:45;4.43;;;2.35;;
68593;SDS011;55563;52.416;13.548;2022-12-07T02:03:46;4.75;;;3.20;;
68593;SDS011;55563;52.416;13.548;2022-12-07T02:05:47;4.57;;;2.63;;
68593;SDS011;55563;52.416;13.548;2022-12-07T02:09:51;3.95;;;2.53;;
68593;SDS011;55563;52.416;13.548;2022-12-07T02:11:52;4.82;;;2.65;;
68593;SDS011;55563;52.416;13.548;2022-12-07T02:13:54;4.25;;;2.33;;
68593;SDS011;55563;52.416;13.548;2022-12-07T02:21:08;4.40;;;2.95;;
68593;SDS011;55563;52.416;13.548;2022-12-07T02:23:22;4.35;;;2.50;;
68593;SDS011;55563;52.416;13.548;2022-12-07T02:25:58;4.85;;;3.03;;
68593;SDS011;55563;52.416;13.548;2022-12-07T02:28:35;4.82;;;2.88;;
68593;SDS011;55563;52.416;13.548;2022-12-07T02:30:40;7.88;;;3.38;;
68593;SDS011;55563;52.416;13.548;2022-12-07T02:33:17;4.45;;;3.10;;
68593;SDS011;55563;52.416;13.548;2022-12-07T02:35:13;4.68;;;2.50;;
68593;SDS011;55563;52.416;13.548;2022-12-07T02:39:43;4.57;;;3.00;;
68593;SDS011;55563;52.416;13.548;2022-12-07T02:41:51;4.05;;;2.30;;
68593;SDS011;55563;52.416;13.548;2022-12-07T02:43:57;4.55;;;2.95;;
68593;SDS011;55563;52.416;13.548;2022-12-07T02:46:03;4.13;;;2.42;;
68593;SDS011;55563;52.416;13.548;2022-12-07T02:48:08;5.43;;;3.42;;
68593;SDS011;55563;52.416;13.548;2022-12-07T02:50:12;5.18;;;3.60;;
68593;SDS011;55563;52.416;13.548;2022-12-07T02:52:12;5.75;;;3.50;;
68593;SDS011;55563;52.416;13.548;2022-12-07T02:54:14;5.10;;;3.28;;
68593;SDS011;55563;52.416;13.548;2022-12-07T02:56:48;4.78;;;2.40;;
68593;SDS011;55563;52.416;13.548;2022-12-07T03:01:04;4.35;;;2.50;;
68593;SDS011;55563;52.416;13.548;2022-12-07T03:05:37;4.38;;;2.60;;
68593;SDS011;55563;52.416;13.548;2022-12-07T03:10:19;7.15;;;2.65;;
68593;SDS011;55563;52.416;13.548;2022-12-07T03:12:29;4.18;;;2.80;;
68593;SDS011;55563;52.416;13.548;2022-12-07T03:14:37;3.63;;;2.17;;
68593;SDS011;55563;52.416;13.548;2022-12-07T03:16:45;3.42;;;2.08;;
68593;SDS011;55563;52.416;13.548;2022-12-07T03:19:03;3.30;;;1.75;;
68593;SDS011;55563;52.416;13.548;2022-12-07T03:21:10;4.30;;;2.45;;
68593;SDS011;55563;52.416;13.548;2022-12-07T03:23:14;4.45;;;2.40;;
68593;SDS011;55563;52.416;13.548;2022-12-07T03:25:17;4.05;;;2.50;;
68593;SDS011;55563;52.416;13.548;2022-12-07T03:27:19;3.20;;;1.92;;
68593;SDS011;55563;52.416;13.548;2022-12-07T03:29:25;2.50;;;1.40;;
68593;SDS011;55563;52.416;13.548;2022-12-07T03:31:31;3.72;;;2.30;;
68593;SDS011;55563;52.416;13.548;2022-12-07T03:33:43;3.38;;;2.13;;
68593;SDS011;55563;52.416;13.548;2022-12-07T03:35:52;4.07;;;2.17;;
68593;SDS011;55563;52.416;13.548;2022-12-07T03:38:02;3.28;;;2.22;;
68593;SDS011;55563;52.416;13.548;2022-12-07T03:40:18;4.65;;;2.45;;
68593;SDS011;55563;52.416;13.548;2022-12-07T03:42:24;4.13;;;2.40;;
68593;SDS011;55563;52.416;13.548;2022-12-07T03:44:25;4.72;;;2.67;;
68593;SDS011;55563;52.416;13.548;2022-12-07T03:46:44;4.75;;;2.42;;
68593;SDS011;55563;52.416;13.548;2022-12-07T03:51:22;4.32;;;2.83;;
68593;SDS011;55563;52.416;13.548;2022-12-07T03:53:30;4.75;;;2.33;;
68593;SDS011;55563;52.416;13.548;2022-12-07T03:55:39;4.72;;;2.78;;
68593;SDS011;55563;52.416;13.548;2022-12-07T03:57:44;6.07;;;3.15;;
68593;SDS011;55563;52.416;13.548;2022-12-07T03:59:48;4.60;;;2.50;;
68593;SDS011;55563;52.416;13.548;2022-12-07T04:01:53;5.38;;;3.42;;
68593;SDS011;55563;52.416;13.548;2022-12-07T04:03:56;5.43;;;3.25;;
68593;SDS011;55563;52.416;13.548;2022-12-07T04:05:56;5.13;;;3.08;;
68593;SDS011;55563;52.416;13.548;2022-12-07T04:07:58;5.30;;;3.10;;
68593;SDS011;55563;52.416;13.548;2022-12-07T04:09:59;6.25;;;3.70;;
68593;SDS011;55563;52.416;13.548;2022-12-07T04:12:00;4.28;;;2.40;;
68593;SDS011;55563;52.416;13.548;2022-12-07T04:14:01;5.53;;;3.15;;
68593;SDS011;55563;52.416;13.548;2022-12-07T04:16:21;4.47;;;3.08;;
68593;SDS011;55563;52.416;13.548;2022-12-07T04:18:22;6.22;;;3.80;;
68593;SDS011;55563;52.416;13.548;2022-12-07T04:20:22;5.78;;;3.42;;
68593;SDS011;55563;52.416;13.548;2022-12-07T04:22:23;5.55;;;3.42;;
68593;SDS011;55563;52.416;13.548;2022-12-07T04:24:24;4.95;;;2.70;;
68593;SDS011;55563;52.416;13.548;2022-12-07T04:26:25;6.60;;;3.95;;
68593;SDS011;55563;52.416;13.548;2022-12-07T04:28:26;6.80;;;4.25;;
68593;SDS011;55563;52.416;13.548;2022-12-07T04:30:26;6.18;;;3.10;;
68593;SDS011;55563;52.416;13.548;2022-12-07T04:32:27;7.78;;;3.70;;
68593;SDS011;55563;52.416;13.548;2022-12-07T04:34:28;7.03;;;4.30;;
68593;SDS011;55563;52.416;13.548;2022-12-07T04:36:28;6.75;;;3.20;;
68593;SDS011;55563;52.416;13.548;2022-12-07T04:38:29;6.60;;;3.72;;
68593;SDS011;55563;52.416;13.548;2022-12-07T04:40:29;5.47;;;3.53;;
68593;SDS011;55563;52.416;13.548;2022-12-07T04:42:30;8.27;;;4.53;;
68593;SDS011;55563;52.416;13.548;2022-12-07T04:44:31;5.13;;;2.67;;
68593;SDS011;55563;52.416;13.548;2022-12-07T04:46:31;7.28;;;3.50;;
68593;SDS011;55563;52.416;13.548;2022-12-07T04:48:32;7.72;;;4.47;;
68593;SDS011;55563;52.416;13.548;2022-12-07T04:50:33;8.00;;;4.78;;
68593;SDS011;55563;52.416;13.548;2022-12-07T04:52:35;7.90;;;4.22;;
68593;SDS011;55563;52.416;13.548;2022-12-07T04:54:36;6.60;;;4.25;;
68593;SDS011;55563;52.416;13.548;2022-12-07T04:56:36;6.57;;;3.72;;
68593;SDS011;55563;52.416;13.548;2022-12-07T04:58:37;7.95;;;4.07;;
68593;SDS011;55563;52.416;13.548;2022-12-07T05:00:38;6.03;;;3.63;;
68593;SDS011;55563;52.416;13.548;2022-12-07T05:02:39;6.82;;;3.63;;
68593;SDS011;55563;52.416;13.548;2022-12-07T05:04:40;7.88;;;3.90;;
68593;SDS011;55563;52.416;13.548;2022-12-07T05:06:41;7.95;;;4.22;;
68593;SDS011;55563;52.416;13.548;2022-12-07T05:08:42;8.13;;;4.72;;
68593;SDS011;55563;52.416;13.548;2022-12-07T05:10:43;12.55;;;7.07;;
68593;SDS011;55563;52.416;13.548;2022-12-07T05:12:44;9.88;;;4.82;;
68593;SDS011;55563;52.416;13.548;2022-12-07T05:14:45;8.52;;;5.07;;
68593;SDS011;55563;52.416;13.548;2022-12-07T05:16:47;8.05;;;4.28;;
68593;SDS011;55563;52.416;13.548;2022-12-07T05:18:49;8.82;;;4.53;;
68593;SDS011;55563;52.416;13.548;2022-12-07T05:20:50;9.93;;;4.88;;
68593;SDS011;55563;52.416;13.548;2022-12-07T05:22:51;8.60;;;4.35;;
68593;SDS011;55563;52.416;13.548;2022-12-07T05:24:52;8.40;;;4.05;;
68593;SDS011;55563;52.416;13.548;2022-12-07T05:26:52;10.38;;;5.03;;
68593;SDS011;55563;52.416;13.548;2022-12-07T05:28:54;8.52;;;4.18;;
68593;SDS011;55563;52.416;13.548;2022-12-07T05:30:55;5.50;;;3.28;;
68593;SDS011;55563;52.416;13.548;2022-12-07T05:32:56;8.63;;;4.70;;
68593;SDS011;55563;52.416;13.548;2022-12-07T05:34:57;4.55;;;3.08;;
68593;SDS011;55563;52.416;13.548;2022-12-07T05:36:58;9.32;;;4.63;;
68593;SDS011;55563;52.416;13.548;2022-12-07T05:38:58;8.23;;;3.90;;
68593;SDS011;55563;52.416;13.548;2022-12-07T05:41:00;9.20;;;4.38;;
68593;SDS011;55563;52.416;13.548;2022-12-07T05:43:01;8.63;;;4.43;;
68593;SDS011;55563;52.416;13.548;2022-12-07T05:45:02;10.88;;;5.00;;
68593;SDS011;55563;52.416;13.548;2022-12-07T05:47:03;9.55;;;5.25;;
68593;SDS011;55563;52.416;13.548;2022-12-07T05:49:04;9.48;;;5.25;;
68593;SDS011;55563;52.416;13.548;2022-12-07T05:51:04;9.25;;;5.35;;
68593;SDS011;55563;52.416;13.548;2022-12-07T05:53:05;9.25;;;5.03;;
68593;SDS011;55563;52.416;13.548;2022-12-07T05:55:06;3.95;;;3.17;;
68593;SDS011;55563;52.416;13.548;2022-12-07T05:57:07;8.68;;;4.45;;
68593;SDS011;55563;52.416;13.548;2022-12-07T05:59:09;9.40;;;5.57;;
68593;SDS011;55563;52.416;13.548;2022-12-07T06:01:25;7.35;;;4.28;;
68593;SDS011;55563;52.416;13.548;2022-12-07T06:03:26;7.50;;;3.80;;
68593;SDS011;55563;52.416;13.548;2022-12-07T06:05:27;10.98;;;5.75;;
68593;SDS011;55563;52.416;13.548;2022-12-07T06:07:27;9.63;;;5.18;;
68593;SDS011;55563;52.416;13.548;2022-12-07T06:09:28;8.73;;;4.18;;
68593;SDS011;55563;52.416;13.548;2022-12-07T06:11:29;8.70;;;4.82;;
68593;SDS011;55563;52.416;13.548;2022-12-07T06:13:49;8.90;;;4.55;;
68593;SDS011;55563;52.416;13.548;2022-12-07T06:15:50;12.32;;;6.40;;
68593;SDS011;55563;52.416;13.548;2022-12-07T06:17:51;11.27;;;5.22;;
68593;SDS011;55563;52.416;13.548;2022-12-07T06:19:51;6.18;;;3.42;;
68593;SDS011;55563;52.416;13.548;2022-12-07T06:21:52;4.57;;;2.53;;
68593;SDS011;55563;52.416;13.548;2022-12-07T06:23:53;5.70;;;3.63;;
68593;SDS011;55563;52.416;13.548;2022-12-07T06:25:54;7.78;;;4.25;;
68593;SDS011;55563;52.416;13.548;2022-12-07T06:27:55;7.60;;;4.00;;
68593;SDS011;55563;52.416;13.548;2022-12-07T06:29:55;12.60;;;5.70;;
68593;SDS011;55563;52.416;13.548;2022-12-07T06:31:56;11.45;;;5.00;;
68593;SDS011;55563;52.416;13.548;2022-12-07T06:33:58;11.00;;;4.88;;
68593;SDS011;55563;52.416;13.548;2022-12-07T06:35:59;11.50;;;5.45;;
68593;SDS011;55563;52.416;13.548;2022-12-07T06:38:01;10.23;;;5.13;;
68593;SDS011;55563;52.416;13.548;2022-12-07T06:40:02;10.65;;;5.20;;
68593;SDS011;55563;52.416;13.548;2022-12-07T06:42:02;11.15;;;5.03;;
68593;SDS011;55563;52.416;13.548;2022-12-07T06:44:04;11.80;;;4.80;;
68593;SDS011;55563;52.416;13.548;2022-12-07T06:46:06;13.18;;;6.63;;
68593;SDS011;55563;52.416;13.548;2022-12-07T06:48:06;11.35;;;5.47;;
68593;SDS011;55563;52.416;13.548;2022-12-07T06:50:07;10.60;;;5.72;;
68593;SDS011;55563;52.416;13.548;2022-12-07T06:52:08;9.45;;;4.85;;
68593;SDS011;55563;52.416;13.548;2022-12-07T06:54:09;12.98;;;5.65;;
68593;SDS011;55563;52.416;13.548;2022-12-07T06:56:10;11.02;;;5.70;;
68593;SDS011;55563;52.416;13.548;2022-12-07T06:58:11;11.07;;;6.07;;
68593;SDS011;55563;52.416;13.548;2022-12-07T07:00:12;11.73;;;6.47;;
68593;SDS011;55563;52.416;13.548;2022-12-07T07:02:13;12.18;;;6.32;;
68593;SDS011;55563;52.416;13.548;2022-12-07T07:04:14;8.57;;;3.65;;
68593;SDS011;55563;52.416;13.548;2022-12-07T07:06:14;13.02;;;6.88;;
68593;SDS011;55563;52.416;13.548;2022-12-07T07:08:15;13.35;;;6.25;;
68593;SDS011;55563;52.416;13.548;2022-12-07T07:10:16;12.23;;;6.50;;
68593;SDS011;55563;52.416;13.548;2022-12-07T07:12:17;8.27;;;5.18;;
68593;SDS011;55563;52.416;13.548;2022-12-07T07:14:17;9.20;;;4.75;;
68593;SDS011;55563;52.416;13.548;2022-12-07T07:16:19;10.80;;;6.05;;
68593;SDS011;55563;52.416;13.548;2022-12-07T07:18:20;11.50;;;5.85;;
68593;SDS011;55563;52.416;13.548;2022-12-07T07:20:21;12.25;;;5.95;;
68593;SDS011;55563;52.416;13.548;2022-12-07T07:22:22;11.90;;;5.60;;
68593;SDS011;55563;52.416;13.548;2022-12-07T07:24:22;10.73;;;5.28;;
68593;SDS011;55563;52.416;13.548;2022-12-07T07:26:23;10.15;;;5.57;;
68593;SDS011;55563;52.416;13.548;2022-12-07T07:28:24;11.60;;;6.13;;
68593;SDS011;55563;52.416;13.548;2022-12-07T07:30:24;5.90;;;4.10;;
68593;SDS011;55563;52.416;13.548;2022-12-07T07:32:26;10.85;;;5.50;;
68593;SDS011;55563;52.416;13.548;2022-12-07T07:34:26;11.88;;;7.00;;
68593;SDS011;55563;52.416;13.548;2022-12-07T07:36:27;10.55;;;5.40;;
68593;SDS011;55563;52.416;13.548;2022-12-07T07:38:28;13.50;;;6.97;;
68593;SDS011;55563;52.416;13.548;2022-12-07T07:40:28;11.27;;;4.93;;
68593;SDS011;55563;52.416;13.548;2022-12-07T07:42:29;11.00;;;6.32;;
68593;SDS011;55563;52.416;13.548;2022-12-07T07:44:30;9.65;;;6.10;;
68593;SDS011;55563;52.416;13.548;2022-12-07T07:46:31;6.75;;;3.92;;
68593;SDS011;55563;52.416;13.548;2022-12-07T07:48:33;11.55;;;5.32;;
68593;SDS011;55563;52.416;13.548;2022-12-07T07:50:34;10.90;;;5.43;;
68593;SDS011;55563;52.416;13.548;2022-12-07T07:52:34;11.93;;;6.03;;
68593;SDS011;55563;52.416;13.548;2022-12-07T07:54:35;11.77;;;6.60;;
68593;SDS011;55563;52.416;13.548;2022-12-07T07:56:36;12.35;;;6.38;;
68593;SDS011;55563;52.416;13.548;2022-12-07T07:58:36;9.57;;;5.80;;
68593;SDS011;55563;52.416;13.548;2022-12-07T08:00:39;11.65;;;5.65;;
68593;SDS011;55563;52.416;13.548;2022-12-07T08:02:40;9.98;;;5.60;;
68593;SDS011;55563;52.416;13.548;2022-12-07T08:04:43;7.78;;;4.85;;
68593;SDS011;55563;52.416;13.548;2022-12-07T08:06:44;8.65;;;4.93;;
68593;SDS011;55563;52.416;13.548;2022-12-07T08:08:45;11.55;;;5.90;;
68593;SDS011;55563;52.416;13.548;2022-12-07T08:10:45;11.57;;;6.13;;
68593;SDS011;55563;52.416;13.548;2022-12-07T08:12:46;11.05;;;5.75;;
68593;SDS011;55563;52.416;13.548;2022-12-07T08:15:07;11.93;;;6.28;;
68593;SDS011;55563;52.416;13.548;2022-12-07T08:17:07;10.70;;;5.70;;
68593;SDS011;55563;52.416;13.548;2022-12-07T08:19:08;9.60;;;5.18;;
68593;SDS011;55563;52.416;13.548;2022-12-07T08:21:09;9.15;;;5.32;;
68593;SDS011;55563;52.416;13.548;2022-12-07T08:23:12;9.32;;;4.63;;
68593;SDS011;55563;52.416;13.548;2022-12-07T08:25:13;8.75;;;5.38;;
68593;SDS011;55563;52.416;13.548;2022-12-07T08:27:13;9.18;;;5.65;;
68593;SDS011;55563;52.416;13.548;2022-12-07T08:29:14;8.60;;;4.32;;
68593;SDS011;55563;52.416;13.548;2022-12-07T08:31:15;8.48;;;4.72;;
68593;SDS011;55563;52.416;13.548;2022-12-07T08:33:17;7.28;;;4.15;;
68593;SDS011;55563;52.416;13.548;2022-12-07T08:35:18;6.25;;;3.80;;
68593;SDS011;55563;52.416;13.548;2022-12-07T08:37:19;6.50;;;2.83;;
68593;SDS011;55563;52.416;13.548;2022-12-07T08:39:20;7.47;;;3.72;;
68593;SDS011;55563;52.416;13.548;2022-12-07T08:41:20;6.20;;;4.35;;
68593;SDS011;55563;52.416;13.548;2022-12-07T08:43:21;5.18;;;3.28;;
68593;SDS011;55563;52.416;13.548;2022-12-07T08:45:22;6.13;;;3.60;;
68593;SDS011;55563;52.416;13.548;2022-12-07T08:47:23;4.43;;;2.88;;
68593;SDS011;55563;52.416;13.548;2022-12-07T08:49:27;4.38;;;2.75;;
68593;SDS011;55563;52.416;13.548;2022-12-07T08:51:32;4.35;;;2.50;;
68593;SDS011;55563;52.416;13.548;2022-12-07T08:53:33;2.30;;;2.05;;
68593;SDS011;55563;52.416;13.548;2022-12-07T08:55:35;2.00;;;1.55;;
68593;SDS011;55563;52.416;13.548;2022-12-07T08:57:36;3.05;;;2.05;;
68593;SDS011;55563;52.416;13.548;2022-12-07T08:59:37;2.53;;;1.80;;
68593;SDS011;55563;52.416;13.548;2022-12-07T09:01:38;2.15;;;1.77;;
68593;SDS011;55563;52.416;13.548;2022-12-07T09:03:38;2.67;;;2.22;;
68593;SDS011;55563;52.416;13.548;2022-12-07T09:05:39;1.60;;;1.50;;
68593;SDS011;55563;52.416;13.548;2022-12-07T09:07:40;1.25;;;0.88;;
68593;SDS011;55563;52.416;13.548;2022-12-07T09:09:43;2.75;;;1.83;;
68593;SDS011;55563;52.416;13.548;2022-12-07T09:11:44;1.70;;;1.58;;
68593;SDS011;55563;52.416;13.548;2022-12-07T09:13:45;4.78;;;1.73;;
68593;SDS011;55563;52.416;13.548;2022-12-07T09:15:45;2.45;;;1.88;;
68593;SDS011;55563;52.416;13.548;2022-12-07T09:17:46;1.80;;;1.33;;
68593;SDS011;55563;52.416;13.548;2022-12-07T09:19:47;2.63;;;1.98;;
68593;SDS011;55563;52.416;13.548;2022-12-07T09:21:48;2.58;;;1.65;;
68593;SDS011;55563;52.416;13.548;2022-12-07T09:23:48;2.00;;;1.67;;
68593;SDS011;55563;52.416;13.548;2022-12-07T09:25:49;2.40;;;1.92;;
68593;SDS011;55563;52.416;13.548;2022-12-07T09:27:54;2.70;;;2.13;;
68593;SDS011;55563;52.416;13.548;2022-12-07T09:29:56;2.47;;;2.25;;
68593;SDS011;55563;52.416;13.548;2022-12-07T09:31:56;1.70;;;1.58;;
68593;SDS011;55563;52.416;13.548;2022-12-07T09:33:58;4.47;;;2.72;;
68593;SDS011;55563;52.416;13.548;2022-12-07T09:36:00;3.05;;;2.55;;
68593;SDS011;55563;52.416;13.548;2022-12-07T09:38:01;2.80;;;2.28;;
68593;SDS011;55563;52.416;13.548;2022-12-07T09:40:02;4.30;;;2.47;;
68593;SDS011;55563;52.416;13.548;2022-12-07T09:42:04;2.45;;;2.05;;
68593;SDS011;55563;52.416;13.548;2022-12-07T09:44:06;2.65;;;2.15;;
68593;SDS011;55563;52.416;13.548;2022-12-07T09:46:13;2.55;;;2.15;;
68593;SDS011;55563;52.416;13.548;2022-12-07T09:48:18;5.13;;;2.53;;
68593;SDS011;55563;52.416;13.548;2022-12-07T09:50:23;2.55;;;2.10;;
68593;SDS011;55563;52.416;13.548;2022-12-07T09:52:27;2.15;;;1.70;;
68593;SDS011;55563;52.416;13.548;2022-12-07T09:54:29;4.18;;;2.05;;
68593;SDS011;55563;52.416;13.548;2022-12-07T09:56:31;2.33;;;2.03;;
68593;SDS011;55563;52.416;13.548;2022-12-07T09:58:32;2.60;;;1.92;;
68593;SDS011;55563;52.416;13.548;2022-12-07T10:00:33;1.42;;;0.93;;
68593;SDS011;55563;52.416;13.548;2022-12-07T10:02:36;2.30;;;1.48;;
68593;SDS011;55563;52.416;13.548;2022-12-07T10:04:46;2.35;;;1.80;;
68593;SDS011;55563;52.416;13.548;2022-12-07T10:06:47;2.30;;;2.00;;
68593;SDS011;55563;52.416;13.548;2022-12-07T10:08:48;2.60;;;2.10;;
68593;SDS011;55563;52.416;13.548;2022-12-07T10:10:51;2.20;;;1.77;;
68593;SDS011;55563;52.416;13.548;2022-12-07T10:12:58;2.65;;;1.50;;
68593;SDS011;55563;52.416;13.548;2022-12-07T10:15:01;2.35;;;2.05;;
68593;SDS011;55563;52.416;13.548;2022-12-07T10:17:37;2.53;;;2.30;;
68593;SDS011;55563;52.416;13.548;2022-12-07T10:19:41;1.92;;;1.75;;
68593;SDS011;55563;52.416;13.548;2022-12-07T10:21:42;2.17;;;1.85;;
68593;SDS011;55563;52.416;13.548;2022-12-07T10:26:19;2.00;;;1.73;;
68593;SDS011;55563;52.416;13.548;2022-12-07T10:28:33;3.85;;;2.33;;
68593;SDS011;55563;52.416;13.548;2022-12-07T10:35:21;1.65;;;1.55;;
68593;SDS011;55563;52.416;13.548;2022-12-07T10:37:30;1.15;;;1.05;;
68593;SDS011;55563;52.416;13.548;2022-12-07T10:39:44;1.40;;;1.02;;
68593;SDS011;55563;52.416;13.548;2022-12-07T10:42:03;1.50;;;1.40;;
68593;SDS011;55563;52.416;13.548;2022-12-07T10:44:07;2.80;;;2.53;;
68593;SDS011;55563;52.416;13.548;2022-12-07T10:46:40;2.55;;;1.73;;
68593;SDS011;55563;52.416;13.548;2022-12-07T10:51:44;2.95;;;1.83;;
68593;SDS011;55563;52.416;13.548;2022-12-07T10:54:09;2.10;;;1.90;;
68593;SDS011;55563;52.416;13.548;2022-12-07T11:01:13;1.83;;;1.30;;
68593;SDS011;55563;52.416;13.548;2022-12-07T11:08:57;2.13;;;1.25;;
68593;SDS011;55563;52.416;13.548;2022-12-07T11:10:52;2.08;;;1.50;;
68593;SDS011;55563;52.416;13.548;2022-12-07T11:15:33;2.10;;;1.25;;
68593;SDS011;55563;52.416;13.548;2022-12-07T11:20:14;2.58;;;1.42;;
68593;SDS011;55563;52.416;13.548;2022-12-07T11:22:56;2.20;;;1.80;;
68593;SDS011;55563;52.416;13.548;2022-12-07T11:35:22;3.25;;;1.75;;
68593;SDS011;55563;52.416;13.548;2022-12-07T11:37:20;2.22;;;1.23;;
68593;SDS011;55563;52.416;13.548;2022-12-07T11:39:28;1.80;;;1.42;;
68593;SDS011;55563;52.416;13.548;2022-12-07T11:41:36;3.03;;;2.17;;
68593;SDS011;55563;52.416;13.548;2022-12-07T11:43:45;2.13;;;1.27;;
68593;SDS011;55563;52.416;13.548;2022-12-07T11:45:58;2.88;;;1.65;;
68593;SDS011;55563;52.416;13.548;2022-12-07T11:50:26;2.22;;;1.73;;
68593;SDS011;55563;52.416;13.548;2022-12-07T11:52:45;2.75;;;2.10;;
68593;SDS011;55563;52.416;13.548;2022-12-07T11:54:51;3.33;;;2.58;;
68593;SDS011;55563;52.416;13.548;2022-12-07T11:56:53;3.65;;;1.92;;
68593;SDS011;55563;52.416;13.548;2022-12-07T11:59:04;2.63;;;1.85;;
68593;SDS011;55563;52.416;13.548;2022-12-07T12:03:37;2.60;;;1.90;;
68593;SDS011;55563;52.416;13.548;2022-12-07T12:05:42;3.33;;;2.40;;
68593;SDS011;55563;52.416;13.548;2022-12-07T12:07:43;3.65;;;2.60;;
68593;SDS011;55563;52.416;13.548;2022-12-07T12:09:49;1.50;;;1.40;;
68593;SDS011;55563;52.416;13.548;2022-12-07T12:17:18;3.00;;;2.42;;
68593;SDS011;55563;52.416;13.548;2022-12-07T12:22:19;2.60;;;1.67;;
68593;SDS011;55563;52.416;13.548;2022-12-07T12:24:23;2.80;;;2.08;;
68593;SDS011;55563;52.416;13.548;2022-12-07T12:26:29;2.20;;;2.00;;
68593;SDS011;55563;52.416;13.548;2022-12-07T12:28:52;4.50;;;1.92;;
68593;SDS011;55563;52.416;13.548;2022-12-07T12:31:05;1.60;;;1.40;;
68593;SDS011;55563;52.416;13.548;2022-12-07T12:33:32;2.20;;;2.00;;
68593;SDS011;55563;52.416;13.548;2022-12-07T12:35:35;2.28;;;1.75;;
68593;SDS011;55563;52.416;13.548;2022-12-07T12:39:44;2.90;;;2.20;;
68593;SDS011;55563;52.416;13.548;2022-12-07T12:42:20;4.93;;;2.03;;
68593;SDS011;55563;52.416;13.548;2022-12-07T12:48:41;2.90;;;1.60;;
68593;SDS011;55563;52.416;13.548;2022-12-07T12:50:42;2.95;;;1.40;;
68593;SDS011;55563;52.416;13.548;2022-12-07T12:57:26;3.03;;;2.15;;
68593;SDS011;55563;52.416;13.548;2022-12-07T12:59:30;1.90;;;1.77;;
68593;SDS011;55563;52.416;13.548;2022-12-07T13:01:37;3.75;;;2.67;;
68593;SDS011;55563;52.416;13.548;2022-12-07T13:03:41;3.53;;;1.92;;
68593;SDS011;55563;52.416;13.548;2022-12-07T13:08:33;2.97;;;1.90;;
68593;SDS011;55563;52.416;13.548;2022-12-07T13:10:41;3.85;;;2.38;;
68593;SDS011;55563;52.416;13.548;2022-12-07T13:12:43;3.25;;;2.00;;
68593;SDS011;55563;52.416;13.548;2022-12-07T13:15:38;2.72;;;1.40;;
68593;SDS011;55563;52.416;13.548;2022-12-07T13:17:54;2.00;;;1.15;;
68593;SDS011;55563;52.416;13.548;2022-12-07T13:19:58;3.20;;;1.75;;
68593;SDS011;55563;52.416;13.548;2022-12-07T13:22:00;2.00;;;1.33;;
68593;SDS011;55563;52.416;13.548;2022-12-07T13:24:01;1.52;;;1.15;;
68593;SDS011;55563;52.416;13.548;2022-12-07T13:26:12;3.17;;;1.63;;
68593;SDS011;55563;52.416;13.548;2022-12-07T13:28:32;3.05;;;1.45;;
68593;SDS011;55563;52.416;13.548;2022-12-07T13:30:45;2.35;;;1.45;;
68593;SDS011;55563;52.416;13.548;2022-12-07T13:32:54;4.63;;;1.17;;
68593;SDS011;55563;52.416;13.548;2022-12-07T13:34:56;2.25;;;1.30;;
68593;SDS011;55563;52.416;13.548;2022-12-07T13:36:57;5.78;;;2.90;;
68593;SDS011;55563;52.416;13.548;2022-12-07T13:39:33;2.00;;;1.20;;
68593;SDS011;55563;52.416;13.548;2022-12-07T13:41:25;3.50;;;1.48;;
68593;SDS011;55563;52.416;13.548;2022-12-07T13:43:27;2.05;;;1.30;;